レゾリュート の空港の天気 - METARとTAF

レゾリュート空港 ( CYRB / YRB ) - カナダ ヌナブト準州レゾリュート
飛行場実況気象(Metar)
観測時間04/21 10:00 CDT (04/21 15:00 UTC)
風向・風速北北東 10m/s
視程10km以上
天気現象細氷
なし
気温-27℃
湿度69%
気圧1011.6hPa
METARCYRB 211500Z 03019KT 8SM IC SKC M27/M31 A2983 RMK SLP116
過去の天気等 Google飛行場航空写真 Wunderground天気予報

過去48時間のMETAR

飛行場予報(TAF)
発表時間: 4/21 07:35 CDT (4/21 12:35 UTC)
予報対象時間: 21日7時 CDT ~ 22日7時 CDT
風向・風速北北西 5m/s
視程10km以上
天気現象細氷
少しの雲 雲底高度 1220m
21日7時 CDT ~ 21日17時 CDT に一時的に
風向・風速北東 10m/s
視程3220m
天気現象細氷 もや
21日15時 CDT ~ 21日17時 CDT に徐々に
風向・風速北 9m/s
21日17時 CDT から
風向・風速北 9m/s
視程10km以上
なし
21日17時 CDT ~ 21日24時 CDT に一時的に
視程8050m
天気現象細氷
22日0時 CDT から
風向・風速北北西 11m/s
視程6440m
天気現象高い地吹雪
なし
TAF AMD CYRB 211235Z 2112/2212 34010KT P6SM IC FEW040
TEMPO 2112/2122 04020KT 2SM IC BR
BECMG 2120/2122 36018KT
FM212200 36018KT P6SM SKC
TEMPO 2122/2205 5SM IC
FM220500 33022KT 4SM BLSN SKC RMK NXT FCST BY 211800Z